sensor_id;sensor_type;location;lat;lon;timestamp;P1;durP1;ratioP1;P2;durP2;ratioP2
25846;SDS011;13676;50.168;8.568;2022-08-18T00:02:17;7.43;;;4.30;;
25846;SDS011;13676;50.168;8.568;2022-08-18T00:04:45;3.92;;;3.38;;
25846;SDS011;13676;50.168;8.568;2022-08-18T00:07:13;4.95;;;3.80;;
25846;SDS011;13676;50.168;8.568;2022-08-18T00:09:43;4.10;;;3.47;;
25846;SDS011;13676;50.168;8.568;2022-08-18T00:15:06;4.45;;;3.45;;
25846;SDS011;13676;50.168;8.568;2022-08-18T00:17:38;4.22;;;3.22;;
25846;SDS011;13676;50.168;8.568;2022-08-18T00:20:06;3.55;;;3.10;;
25846;SDS011;13676;50.168;8.568;2022-08-18T00:22:33;4.18;;;3.30;;
25846;SDS011;13676;50.168;8.568;2022-08-18T00:24:59;5.35;;;3.40;;
25846;SDS011;13676;50.168;8.568;2022-08-18T00:27:26;4.78;;;3.17;;
25846;SDS011;13676;50.168;8.568;2022-08-18T00:29:53;5.07;;;3.42;;
25846;SDS011;13676;50.168;8.568;2022-08-18T00:32:20;5.40;;;3.60;;
25846;SDS011;13676;50.168;8.568;2022-08-18T00:34:50;5.25;;;3.80;;
25846;SDS011;13676;50.168;8.568;2022-08-18T00:37:16;4.90;;;4.10;;
25846;SDS011;13676;50.168;8.568;2022-08-18T00:39:42;5.57;;;3.33;;
25846;SDS011;13676;50.168;8.568;2022-08-18T00:42:22;5.82;;;3.78;;
25846;SDS011;13676;50.168;8.568;2022-08-18T00:44:50;7.65;;;3.78;;
25846;SDS011;13676;50.168;8.568;2022-08-18T00:47:15;4.20;;;3.80;;
25846;SDS011;13676;50.168;8.568;2022-08-18T00:49:41;4.95;;;3.97;;
25846;SDS011;13676;50.168;8.568;2022-08-18T00:52:09;6.50;;;3.72;;
25846;SDS011;13676;50.168;8.568;2022-08-18T00:57:03;7.00;;;4.13;;
25846;SDS011;13676;50.168;8.568;2022-08-18T01:02:23;5.07;;;3.97;;
25846;SDS011;13676;50.168;8.568;2022-08-18T01:04:55;6.32;;;4.20;;
25846;SDS011;13676;50.168;8.568;2022-08-18T01:07:29;4.47;;;4.07;;
25846;SDS011;13676;50.168;8.568;2022-08-18T01:09:58;5.80;;;3.70;;
25846;SDS011;13676;50.168;8.568;2022-08-18T01:12:24;6.20;;;4.63;;
25846;SDS011;13676;50.168;8.568;2022-08-18T01:14:50;6.00;;;4.35;;
25846;SDS011;13676;50.168;8.568;2022-08-18T01:17:16;5.38;;;3.97;;
25846;SDS011;13676;50.168;8.568;2022-08-18T01:20:00;4.75;;;4.25;;
25846;SDS011;13676;50.168;8.568;2022-08-18T01:25:11;4.80;;;4.35;;
25846;SDS011;13676;50.168;8.568;2022-08-18T01:27:56;5.45;;;4.32;;
25846;SDS011;13676;50.168;8.568;2022-08-18T01:30:22;5.15;;;4.35;;
25846;SDS011;13676;50.168;8.568;2022-08-18T01:32:49;4.70;;;4.30;;
25846;SDS011;13676;50.168;8.568;2022-08-18T01:35:16;4.93;;;4.47;;
25846;SDS011;13676;50.168;8.568;2022-08-18T01:37:42;5.30;;;4.33;;
25846;SDS011;13676;50.168;8.568;2022-08-18T01:40:09;5.70;;;3.72;;
25846;SDS011;13676;50.168;8.568;2022-08-18T01:42:36;5.72;;;4.30;;
25846;SDS011;13676;50.168;8.568;2022-08-18T01:45:03;4.07;;;3.67;;
25846;SDS011;13676;50.168;8.568;2022-08-18T01:47:30;4.70;;;4.20;;
25846;SDS011;13676;50.168;8.568;2022-08-18T01:49:56;8.63;;;4.97;;
25846;SDS011;13676;50.168;8.568;2022-08-18T01:52:22;5.00;;;4.43;;
25846;SDS011;13676;50.168;8.568;2022-08-18T01:54:48;6.13;;;5.07;;
25846;SDS011;13676;50.168;8.568;2022-08-18T01:57:14;11.10;;;4.95;;
25846;SDS011;13676;50.168;8.568;2022-08-18T01:59:40;6.65;;;4.70;;
25846;SDS011;13676;50.168;8.568;2022-08-18T02:02:06;7.70;;;4.35;;
25846;SDS011;13676;50.168;8.568;2022-08-18T02:04:33;5.78;;;4.72;;
25846;SDS011;13676;50.168;8.568;2022-08-18T02:06:59;7.72;;;5.20;;
25846;SDS011;13676;50.168;8.568;2022-08-18T02:11:52;6.88;;;5.63;;
25846;SDS011;13676;50.168;8.568;2022-08-18T02:14:17;8.32;;;5.35;;
25846;SDS011;13676;50.168;8.568;2022-08-18T02:16:43;6.40;;;5.18;;
25846;SDS011;13676;50.168;8.568;2022-08-18T02:19:08;6.80;;;5.53;;
25846;SDS011;13676;50.168;8.568;2022-08-18T02:21:33;6.70;;;5.60;;
25846;SDS011;13676;50.168;8.568;2022-08-18T02:23:59;5.75;;;5.18;;
25846;SDS011;13676;50.168;8.568;2022-08-18T02:26:24;5.65;;;5.00;;
25846;SDS011;13676;50.168;8.568;2022-08-18T02:28:49;5.75;;;5.10;;
25846;SDS011;13676;50.168;8.568;2022-08-18T02:31:16;5.47;;;4.97;;
25846;SDS011;13676;50.168;8.568;2022-08-18T02:33:44;6.53;;;5.18;;
25846;SDS011;13676;50.168;8.568;2022-08-18T02:36:10;6.13;;;5.38;;
25846;SDS011;13676;50.168;8.568;2022-08-18T02:38:36;6.35;;;5.05;;
25846;SDS011;13676;50.168;8.568;2022-08-18T02:41:03;7.10;;;5.00;;
25846;SDS011;13676;50.168;8.568;2022-08-18T02:43:33;6.20;;;5.60;;
25846;SDS011;13676;50.168;8.568;2022-08-18T02:45:59;7.50;;;5.10;;
25846;SDS011;13676;50.168;8.568;2022-08-18T02:48:25;5.80;;;5.30;;
25846;SDS011;13676;50.168;8.568;2022-08-18T02:51:17;6.40;;;4.90;;
25846;SDS011;13676;50.168;8.568;2022-08-18T02:53:43;5.55;;;4.78;;
25846;SDS011;13676;50.168;8.568;2022-08-18T02:56:12;6.07;;;5.47;;
25846;SDS011;13676;50.168;8.568;2022-08-18T02:58:48;6.15;;;5.55;;
25846;SDS011;13676;50.168;8.568;2022-08-18T03:01:16;6.30;;;5.40;;
25846;SDS011;13676;50.168;8.568;2022-08-18T03:03:42;6.18;;;5.28;;
25846;SDS011;13676;50.168;8.568;2022-08-18T03:06:07;7.53;;;5.13;;
25846;SDS011;13676;50.168;8.568;2022-08-18T03:08:32;6.10;;;5.03;;
25846;SDS011;13676;50.168;8.568;2022-08-18T03:10:58;7.10;;;5.15;;
25846;SDS011;13676;50.168;8.568;2022-08-18T03:13:23;6.32;;;5.20;;
25846;SDS011;13676;50.168;8.568;2022-08-18T03:15:49;5.28;;;4.78;;
25846;SDS011;13676;50.168;8.568;2022-08-18T03:18:14;5.97;;;5.35;;
25846;SDS011;13676;50.168;8.568;2022-08-18T03:20:41;6.10;;;5.43;;
25846;SDS011;13676;50.168;8.568;2022-08-18T03:23:08;6.47;;;5.57;;
25846;SDS011;13676;50.168;8.568;2022-08-18T03:25:33;9.23;;;5.00;;
25846;SDS011;13676;50.168;8.568;2022-08-18T03:27:59;6.25;;;5.13;;
25846;SDS011;13676;50.168;8.568;2022-08-18T03:30:27;7.57;;;5.20;;
25846;SDS011;13676;50.168;8.568;2022-08-18T03:32:52;7.15;;;5.65;;
25846;SDS011;13676;50.168;8.568;2022-08-18T03:35:18;6.75;;;4.93;;
25846;SDS011;13676;50.168;8.568;2022-08-18T03:37:43;5.50;;;4.55;;
25846;SDS011;13676;50.168;8.568;2022-08-18T03:40:08;6.95;;;5.65;;
25846;SDS011;13676;50.168;8.568;2022-08-18T03:42:35;6.18;;;5.20;;
25846;SDS011;13676;50.168;8.568;2022-08-18T03:45:01;7.40;;;5.38;;
25846;SDS011;13676;50.168;8.568;2022-08-18T03:47:26;8.32;;;5.75;;
25846;SDS011;13676;50.168;8.568;2022-08-18T03:49:52;6.13;;;5.53;;
25846;SDS011;13676;50.168;8.568;2022-08-18T03:52:18;9.68;;;5.97;;
25846;SDS011;13676;50.168;8.568;2022-08-18T03:54:44;6.32;;;5.28;;
25846;SDS011;13676;50.168;8.568;2022-08-18T03:57:10;7.57;;;5.57;;
25846;SDS011;13676;50.168;8.568;2022-08-18T03:59:38;7.65;;;5.78;;
25846;SDS011;13676;50.168;8.568;2022-08-18T04:02:05;7.82;;;5.88;;
25846;SDS011;13676;50.168;8.568;2022-08-18T04:04:41;9.05;;;5.63;;
25846;SDS011;13676;50.168;8.568;2022-08-18T04:07:07;8.57;;;5.70;;
25846;SDS011;13676;50.168;8.568;2022-08-18T04:09:35;9.18;;;5.97;;
25846;SDS011;13676;50.168;8.568;2022-08-18T04:12:03;7.82;;;6.13;;
25846;SDS011;13676;50.168;8.568;2022-08-18T04:14:34;5.90;;;5.35;;
25846;SDS011;13676;50.168;8.568;2022-08-18T04:17:01;6.43;;;5.75;;
25846;SDS011;13676;50.168;8.568;2022-08-18T04:19:26;9.55;;;6.13;;
25846;SDS011;13676;50.168;8.568;2022-08-18T04:21:52;6.53;;;5.70;;
25846;SDS011;13676;50.168;8.568;2022-08-18T04:24:18;6.63;;;5.35;;
25846;SDS011;13676;50.168;8.568;2022-08-18T04:26:44;5.78;;;5.18;;
25846;SDS011;13676;50.168;8.568;2022-08-18T04:29:11;5.97;;;5.35;;
25846;SDS011;13676;50.168;8.568;2022-08-18T04:34:03;8.27;;;5.90;;
25846;SDS011;13676;50.168;8.568;2022-08-18T04:36:30;6.65;;;5.90;;
25846;SDS011;13676;50.168;8.568;2022-08-18T04:39:02;6.57;;;5.97;;
25846;SDS011;13676;50.168;8.568;2022-08-18T04:41:29;6.10;;;5.50;;
25846;SDS011;13676;50.168;8.568;2022-08-18T04:43:58;7.35;;;5.95;;
25846;SDS011;13676;50.168;8.568;2022-08-18T04:46:25;8.27;;;5.72;;
25846;SDS011;13676;50.168;8.568;2022-08-18T04:48:51;7.28;;;5.38;;
25846;SDS011;13676;50.168;8.568;2022-08-18T04:51:22;6.22;;;5.30;;
25846;SDS011;13676;50.168;8.568;2022-08-18T04:53:47;6.28;;;5.55;;
25846;SDS011;13676;50.168;8.568;2022-08-18T04:56:14;6.03;;;5.43;;
25846;SDS011;13676;50.168;8.568;2022-08-18T04:58:41;6.45;;;5.80;;
25846;SDS011;13676;50.168;8.568;2022-08-18T05:01:06;7.90;;;5.80;;
25846;SDS011;13676;50.168;8.568;2022-08-18T05:03:33;5.75;;;5.25;;
25846;SDS011;13676;50.168;8.568;2022-08-18T05:06:02;6.53;;;5.72;;
25846;SDS011;13676;50.168;8.568;2022-08-18T05:08:28;5.80;;;5.30;;
25846;SDS011;13676;50.168;8.568;2022-08-18T05:10:54;7.75;;;5.55;;
25846;SDS011;13676;50.168;8.568;2022-08-18T05:13:21;7.07;;;5.80;;
25846;SDS011;13676;50.168;8.568;2022-08-18T05:15:55;7.20;;;5.38;;
25846;SDS011;13676;50.168;8.568;2022-08-18T05:18:22;6.15;;;5.00;;
25846;SDS011;13676;50.168;8.568;2022-08-18T05:20:52;5.85;;;5.22;;
25846;SDS011;13676;50.168;8.568;2022-08-18T05:23:18;8.27;;;5.32;;
25846;SDS011;13676;50.168;8.568;2022-08-18T05:25:44;6.40;;;5.80;;
25846;SDS011;13676;50.168;8.568;2022-08-18T05:28:09;7.07;;;5.10;;
25846;SDS011;13676;50.168;8.568;2022-08-18T05:30:35;9.02;;;5.25;;
25846;SDS011;13676;50.168;8.568;2022-08-18T05:33:01;6.05;;;4.95;;
25846;SDS011;13676;50.168;8.568;2022-08-18T05:35:35;6.82;;;4.40;;
25846;SDS011;13676;50.168;8.568;2022-08-18T05:40:54;6.35;;;4.30;;
25846;SDS011;13676;50.168;8.568;2022-08-18T05:43:23;5.63;;;4.60;;
25846;SDS011;13676;50.168;8.568;2022-08-18T05:45:48;5.78;;;3.95;;
25846;SDS011;13676;50.168;8.568;2022-08-18T05:48:15;7.50;;;4.88;;
25846;SDS011;13676;50.168;8.568;2022-08-18T05:50:41;5.82;;;4.18;;
25846;SDS011;13676;50.168;8.568;2022-08-18T05:53:08;5.85;;;4.47;;
25846;SDS011;13676;50.168;8.568;2022-08-18T05:55:40;6.20;;;4.63;;
25846;SDS011;13676;50.168;8.568;2022-08-18T05:58:27;6.10;;;4.65;;
25846;SDS011;13676;50.168;8.568;2022-08-18T06:00:57;8.77;;;4.82;;
25846;SDS011;13676;50.168;8.568;2022-08-18T06:03:31;6.45;;;4.65;;
25846;SDS011;13676;50.168;8.568;2022-08-18T06:06:01;6.47;;;4.20;;
25846;SDS011;13676;50.168;8.568;2022-08-18T06:08:46;6.05;;;4.82;;
25846;SDS011;13676;50.168;8.568;2022-08-18T06:11:17;7.47;;;5.10;;
25846;SDS011;13676;50.168;8.568;2022-08-18T06:13:43;9.18;;;5.15;;
25846;SDS011;13676;50.168;8.568;2022-08-18T06:16:11;8.68;;;4.50;;
25846;SDS011;13676;50.168;8.568;2022-08-18T06:21:21;4.70;;;4.30;;
25846;SDS011;13676;50.168;8.568;2022-08-18T06:26:22;4.90;;;3.80;;
25846;SDS011;13676;50.168;8.568;2022-08-18T06:40:21;9.55;;;5.75;;
25846;SDS011;13676;50.168;8.568;2022-08-18T06:42:46;5.28;;;4.68;;
25846;SDS011;13676;50.168;8.568;2022-08-18T06:45:12;7.00;;;4.70;;
25846;SDS011;13676;50.168;8.568;2022-08-18T06:50:32;10.27;;;4.53;;
25846;SDS011;13676;50.168;8.568;2022-08-18T06:53:03;7.72;;;5.03;;
25846;SDS011;13676;50.168;8.568;2022-08-18T06:55:34;5.30;;;4.60;;
25846;SDS011;13676;50.168;8.568;2022-08-18T06:58:26;7.93;;;4.82;;
25846;SDS011;13676;50.168;8.568;2022-08-18T07:03:39;14.48;;;4.90;;
25846;SDS011;13676;50.168;8.568;2022-08-18T07:06:07;13.30;;;5.40;;
25846;SDS011;13676;50.168;8.568;2022-08-18T07:08:43;15.65;;;6.32;;
25846;SDS011;13676;50.168;8.568;2022-08-18T07:13:50;50.53;;;7.85;;
25846;SDS011;13676;50.168;8.568;2022-08-18T07:18:52;11.18;;;5.10;;
25846;SDS011;13676;50.168;8.568;2022-08-18T07:21:26;7.35;;;4.50;;
25846;SDS011;13676;50.168;8.568;2022-08-18T07:24:01;11.00;;;6.20;;
25846;SDS011;13676;50.168;8.568;2022-08-18T07:26:30;9.57;;;5.70;;
25846;SDS011;13676;50.168;8.568;2022-08-18T07:29:24;8.23;;;5.75;;
25846;SDS011;13676;50.168;8.568;2022-08-18T07:31:51;8.55;;;5.72;;
25846;SDS011;13676;50.168;8.568;2022-08-18T07:37:52;6.28;;;4.90;;
25846;SDS011;13676;50.168;8.568;2022-08-18T07:39:58;8.80;;;5.22;;
25846;SDS011;13676;50.168;8.568;2022-08-18T07:45:05;7.13;;;4.78;;
25846;SDS011;13676;50.168;8.568;2022-08-18T07:47:51;4.93;;;4.35;;
25846;SDS011;13676;50.168;8.568;2022-08-18T07:50:20;10.50;;;5.22;;
25846;SDS011;13676;50.168;8.568;2022-08-18T07:52:50;5.80;;;5.03;;
25846;SDS011;13676;50.168;8.568;2022-08-18T07:55:27;5.28;;;4.25;;
25846;SDS011;13676;50.168;8.568;2022-08-18T08:01:03;11.68;;;4.82;;
25846;SDS011;13676;50.168;8.568;2022-08-18T08:04:12;7.07;;;6.38;;
25846;SDS011;13676;50.168;8.568;2022-08-18T08:06:46;5.75;;;5.10;;
25846;SDS011;13676;50.168;8.568;2022-08-18T08:12:03;6.85;;;4.88;;
25846;SDS011;13676;50.168;8.568;2022-08-18T08:14:46;7.63;;;5.40;;
25846;SDS011;13676;50.168;8.568;2022-08-18T08:28:29;10.50;;;4.35;;
25846;SDS011;13676;50.168;8.568;2022-08-18T08:36:51;6.82;;;4.45;;
25846;SDS011;13676;50.168;8.568;2022-08-18T08:39:24;11.90;;;4.75;;
25846;SDS011;13676;50.168;8.568;2022-08-18T08:41:57;19.85;;;5.07;;
25846;SDS011;13676;50.168;8.568;2022-08-18T08:44:30;6.65;;;4.70;;
25846;SDS011;13676;50.168;8.568;2022-08-18T08:49:46;8.77;;;5.00;;
25846;SDS011;13676;50.168;8.568;2022-08-18T08:52:21;7.10;;;4.43;;
25846;SDS011;13676;50.168;8.568;2022-08-18T08:54:57;8.00;;;5.28;;
25846;SDS011;13676;50.168;8.568;2022-08-18T08:57:25;7.18;;;5.72;;
25846;SDS011;13676;50.168;8.568;2022-08-18T08:59:51;7.72;;;5.40;;
25846;SDS011;13676;50.168;8.568;2022-08-18T09:05:10;7.75;;;5.03;;
25846;SDS011;13676;50.168;8.568;2022-08-18T09:13:12;7.05;;;5.28;;
25846;SDS011;13676;50.168;8.568;2022-08-18T09:18:47;16.23;;;5.20;;
25846;SDS011;13676;50.168;8.568;2022-08-18T09:23:46;5.38;;;4.80;;
25846;SDS011;13676;50.168;8.568;2022-08-18T09:29:12;5.60;;;5.07;;
25846;SDS011;13676;50.168;8.568;2022-08-18T09:31:40;6.57;;;5.00;;
25846;SDS011;13676;50.168;8.568;2022-08-18T09:39:13;6.45;;;5.03;;
25846;SDS011;13676;50.168;8.568;2022-08-18T09:42:02;8.25;;;6.38;;
25846;SDS011;13676;50.168;8.568;2022-08-18T09:47:10;7.13;;;5.78;;
25846;SDS011;13676;50.168;8.568;2022-08-18T09:57:18;8.63;;;7.32;;
25846;SDS011;13676;50.168;8.568;2022-08-18T10:21:08;8.95;;;5.97;;
25846;SDS011;13676;50.168;8.568;2022-08-18T10:23:49;10.73;;;6.45;;
25846;SDS011;13676;50.168;8.568;2022-08-18T10:31:24;11.35;;;6.70;;
25846;SDS011;13676;50.168;8.568;2022-08-18T10:36:50;8.07;;;5.97;;
25846;SDS011;13676;50.168;8.568;2022-08-18T10:39:19;9.57;;;6.80;;
25846;SDS011;13676;50.168;8.568;2022-08-18T10:44:42;7.65;;;6.05;;
25846;SDS011;13676;50.168;8.568;2022-08-18T10:47:09;8.95;;;6.93;;
25846;SDS011;13676;50.168;8.568;2022-08-18T10:49:51;9.65;;;7.38;;
25846;SDS011;13676;50.168;8.568;2022-08-18T11:00:08;8.27;;;7.38;;
25846;SDS011;13676;50.168;8.568;2022-08-18T11:05:22;8.02;;;6.50;;
25846;SDS011;13676;50.168;8.568;2022-08-18T11:07:51;9.80;;;7.47;;
25846;SDS011;13676;50.168;8.568;2022-08-18T11:10:22;7.50;;;6.22;;
25846;SDS011;13676;50.168;8.568;2022-08-18T11:15:57;10.23;;;7.35;;
25846;SDS011;13676;50.168;8.568;2022-08-18T11:18:44;7.97;;;6.18;;
25846;SDS011;13676;50.168;8.568;2022-08-18T11:21:48;8.88;;;6.75;;
25846;SDS011;13676;50.168;8.568;2022-08-18T11:27:00;6.65;;;5.78;;
25846;SDS011;13676;50.168;8.568;2022-08-18T11:34:30;6.47;;;5.88;;
25846;SDS011;13676;50.168;8.568;2022-08-18T11:37:00;7.45;;;6.43;;
25846;SDS011;13676;50.168;8.568;2022-08-18T11:39:28;6.13;;;5.40;;
25846;SDS011;13676;50.168;8.568;2022-08-18T11:41:54;9.43;;;8.27;;
25846;SDS011;13676;50.168;8.568;2022-08-18T11:44:22;14.52;;;10.45;;
25846;SDS011;13676;50.168;8.568;2022-08-18T11:46:53;8.63;;;7.70;;
25846;SDS011;13676;50.168;8.568;2022-08-18T11:49:29;15.18;;;11.02;;
25846;SDS011;13676;50.168;8.568;2022-08-18T11:52:02;17.33;;;9.85;;
25846;SDS011;13676;50.168;8.568;2022-08-18T11:54:43;10.52;;;8.27;;
25846;SDS011;13676;50.168;8.568;2022-08-18T12:03:12;7.40;;;6.55;;
25846;SDS011;13676;50.168;8.568;2022-08-18T12:05:48;9.23;;;6.65;;
25846;SDS011;13676;50.168;8.568;2022-08-18T12:08:18;10.52;;;8.73;;
25846;SDS011;13676;50.168;8.568;2022-08-18T12:10:46;8.23;;;6.80;;
25846;SDS011;13676;50.168;8.568;2022-08-18T12:13:20;10.05;;;7.03;;
25846;SDS011;13676;50.168;8.568;2022-08-18T12:15:47;9.45;;;7.25;;
25846;SDS011;13676;50.168;8.568;2022-08-18T12:18:32;8.02;;;6.13;;
25846;SDS011;13676;50.168;8.568;2022-08-18T12:20:57;8.43;;;6.47;;
25846;SDS011;13676;50.168;8.568;2022-08-18T12:23:23;10.07;;;7.05;;
25846;SDS011;13676;50.168;8.568;2022-08-18T12:25:48;7.15;;;6.45;;
25846;SDS011;13676;50.168;8.568;2022-08-18T12:28:18;9.05;;;6.65;;
25846;SDS011;13676;50.168;8.568;2022-08-18T12:30:45;9.02;;;7.03;;
25846;SDS011;13676;50.168;8.568;2022-08-18T12:33:10;7.63;;;6.93;;
25846;SDS011;13676;50.168;8.568;2022-08-18T12:35:36;7.68;;;6.97;;
25846;SDS011;13676;50.168;8.568;2022-08-18T12:38:01;9.90;;;6.68;;
25846;SDS011;13676;50.168;8.568;2022-08-18T12:40:26;7.25;;;5.47;;
25846;SDS011;13676;50.168;8.568;2022-08-18T12:42:52;9.18;;;7.40;;
25846;SDS011;13676;50.168;8.568;2022-08-18T12:45:17;8.07;;;6.78;;
25846;SDS011;13676;50.168;8.568;2022-08-18T12:47:42;6.50;;;5.90;;
25846;SDS011;13676;50.168;8.568;2022-08-18T12:50:08;7.00;;;6.30;;
25846;SDS011;13676;50.168;8.568;2022-08-18T12:52:33;6.20;;;5.50;;
25846;SDS011;13676;50.168;8.568;2022-08-18T12:54:59;7.50;;;5.53;;
25846;SDS011;13676;50.168;8.568;2022-08-18T12:57:25;6.45;;;5.85;;
25846;SDS011;13676;50.168;8.568;2022-08-18T12:59:51;7.75;;;6.38;;
25846;SDS011;13676;50.168;8.568;2022-08-18T13:02:19;9.63;;;7.45;;
25846;SDS011;13676;50.168;8.568;2022-08-18T13:04:45;6.40;;;5.77;;
25846;SDS011;13676;50.168;8.568;2022-08-18T13:07:11;10.20;;;5.95;;
25846;SDS011;13676;50.168;8.568;2022-08-18T13:09:37;11.23;;;7.17;;
25846;SDS011;13676;50.168;8.568;2022-08-18T13:12:04;9.57;;;5.88;;
25846;SDS011;13676;50.168;8.568;2022-08-18T13:14:30;5.85;;;5.25;;
25846;SDS011;13676;50.168;8.568;2022-08-18T13:16:55;7.72;;;4.82;;
25846;SDS011;13676;50.168;8.568;2022-08-18T13:19:21;8.45;;;6.00;;
25846;SDS011;13676;50.168;8.568;2022-08-18T13:21:46;6.75;;;6.13;;
25846;SDS011;13676;50.168;8.568;2022-08-18T13:24:12;6.00;;;5.40;;
25846;SDS011;13676;50.168;8.568;2022-08-18T13:26:38;6.55;;;5.85;;
25846;SDS011;13676;50.168;8.568;2022-08-18T13:29:06;5.32;;;4.85;;
25846;SDS011;13676;50.168;8.568;2022-08-18T13:31:31;6.43;;;5.05;;
25846;SDS011;13676;50.168;8.568;2022-08-18T13:33:57;5.82;;;5.30;;
25846;SDS011;13676;50.168;8.568;2022-08-18T13:36:23;6.82;;;4.10;;
25846;SDS011;13676;50.168;8.568;2022-08-18T13:38:50;7.30;;;5.47;;
25846;SDS011;13676;50.168;8.568;2022-08-18T13:41:17;5.38;;;4.30;;
25846;SDS011;13676;50.168;8.568;2022-08-18T13:43:43;5.15;;;4.18;;
25846;SDS011;13676;50.168;8.568;2022-08-18T13:46:11;6.68;;;4.10;;
25846;SDS011;13676;50.168;8.568;2022-08-18T13:48:38;4.97;;;4.30;;
25846;SDS011;13676;50.168;8.568;2022-08-18T13:51:04;6.47;;;4.60;;
25846;SDS011;13676;50.168;8.568;2022-08-18T13:53:31;12.23;;;4.47;;
25846;SDS011;13676;50.168;8.568;2022-08-18T13:55:58;5.50;;;3.80;;
25846;SDS011;13676;50.168;8.568;2022-08-18T13:58:24;5.47;;;4.97;;
25846;SDS011;13676;50.168;8.568;2022-08-18T14:00:50;5.65;;;4.72;;
25846;SDS011;13676;50.168;8.568;2022-08-18T14:03:17;5.15;;;4.60;;
25846;SDS011;13676;50.168;8.568;2022-08-18T14:05:42;7.10;;;5.53;;
25846;SDS011;13676;50.168;8.568;2022-08-18T14:08:07;5.50;;;4.75;;
25846;SDS011;13676;50.168;8.568;2022-08-18T14:10:33;5.60;;;4.38;;
25846;SDS011;13676;50.168;8.568;2022-08-18T14:12:59;7.55;;;4.68;;
25846;SDS011;13676;50.168;8.568;2022-08-18T14:15:25;3.95;;;3.53;;
25846;SDS011;13676;50.168;8.568;2022-08-18T14:17:51;5.72;;;5.15;;
25846;SDS011;13676;50.168;8.568;2022-08-18T14:20:17;7.35;;;4.63;;
25846;SDS011;13676;50.168;8.568;2022-08-18T14:23:01;6.15;;;4.65;;
25846;SDS011;13676;50.168;8.568;2022-08-18T14:25:45;5.93;;;5.30;;
25846;SDS011;13676;50.168;8.568;2022-08-18T14:28:30;4.78;;;4.38;;
25846;SDS011;13676;50.168;8.568;2022-08-18T14:30:57;5.03;;;4.50;;
25846;SDS011;13676;50.168;8.568;2022-08-18T14:33:24;4.80;;;4.40;;
25846;SDS011;13676;50.168;8.568;2022-08-18T14:35:51;4.72;;;4.30;;
25846;SDS011;13676;50.168;8.568;2022-08-18T14:38:16;5.22;;;4.57;;
25846;SDS011;13676;50.168;8.568;2022-08-18T14:40:42;5.32;;;4.38;;
25846;SDS011;13676;50.168;8.568;2022-08-18T14:43:09;5.25;;;4.72;;
25846;SDS011;13676;50.168;8.568;2022-08-18T14:45:35;8.55;;;4.82;;
25846;SDS011;13676;50.168;8.568;2022-08-18T14:48:02;6.00;;;4.00;;
25846;SDS011;13676;50.168;8.568;2022-08-18T14:50:28;7.22;;;3.55;;
25846;SDS011;13676;50.168;8.568;2022-08-18T14:52:53;5.18;;;3.80;;
25846;SDS011;13676;50.168;8.568;2022-08-18T14:55:19;5.50;;;4.00;;
25846;SDS011;13676;50.168;8.568;2022-08-18T14:57:44;4.38;;;3.97;;
25846;SDS011;13676;50.168;8.568;2022-08-18T15:00:11;5.75;;;4.47;;
25846;SDS011;13676;50.168;8.568;2022-08-18T15:02:42;4.35;;;3.95;;
25846;SDS011;13676;50.168;8.568;2022-08-18T15:05:10;5.32;;;3.30;;
25846;SDS011;13676;50.168;8.568;2022-08-18T15:07:37;4.47;;;3.67;;
25846;SDS011;13676;50.168;8.568;2022-08-18T15:10:06;6.78;;;4.60;;
25846;SDS011;13676;50.168;8.568;2022-08-18T15:12:34;4.55;;;3.35;;
25846;SDS011;13676;50.168;8.568;2022-08-18T15:15:00;3.35;;;3.05;;
25846;SDS011;13676;50.168;8.568;2022-08-18T15:17:27;4.20;;;3.83;;
25846;SDS011;13676;50.168;8.568;2022-08-18T15:19:53;4.72;;;4.32;;
25846;SDS011;13676;50.168;8.568;2022-08-18T15:22:18;4.78;;;3.53;;
25846;SDS011;13676;50.168;8.568;2022-08-18T15:25:03;5.88;;;4.40;;
25846;SDS011;13676;50.168;8.568;2022-08-18T15:27:48;6.20;;;4.80;;
25846;SDS011;13676;50.168;8.568;2022-08-18T15:30:14;4.72;;;3.90;;
25846;SDS011;13676;50.168;8.568;2022-08-18T15:32:41;5.07;;;4.35;;
25846;SDS011;13676;50.168;8.568;2022-08-18T15:35:07;4.38;;;3.83;;
25846;SDS011;13676;50.168;8.568;2022-08-18T15:37:34;6.45;;;4.60;;
25846;SDS011;13676;50.168;8.568;2022-08-18T15:40:01;4.40;;;3.47;;
25846;SDS011;13676;50.168;8.568;2022-08-18T15:42:36;5.20;;;4.10;;
25846;SDS011;13676;50.168;8.568;2022-08-18T15:45:02;5.63;;;4.65;;
25846;SDS011;13676;50.168;8.568;2022-08-18T15:47:28;5.40;;;4.20;;
25846;SDS011;13676;50.168;8.568;2022-08-18T15:49:57;5.45;;;4.95;;
25846;SDS011;13676;50.168;8.568;2022-08-18T15:52:22;5.78;;;5.18;;
25846;SDS011;13676;50.168;8.568;2022-08-18T15:54:49;6.32;;;5.72;;
25846;SDS011;13676;50.168;8.568;2022-08-18T15:57:14;5.90;;;5.30;;
25846;SDS011;13676;50.168;8.568;2022-08-18T15:59:40;5.05;;;4.55;;
25846;SDS011;13676;50.168;8.568;2022-08-18T16:02:07;4.28;;;3.88;;
25846;SDS011;13676;50.168;8.568;2022-08-18T16:04:33;5.53;;;4.95;;
25846;SDS011;13676;50.168;8.568;2022-08-18T16:07:02;5.57;;;5.07;;
25846;SDS011;13676;50.168;8.568;2022-08-18T16:09:28;6.28;;;5.68;;
25846;SDS011;13676;50.168;8.568;2022-08-18T16:11:53;7.18;;;5.72;;
25846;SDS011;13676;50.168;8.568;2022-08-18T16:14:19;5.82;;;5.30;;
25846;SDS011;13676;50.168;8.568;2022-08-18T16:16:44;5.60;;;4.88;;
25846;SDS011;13676;50.168;8.568;2022-08-18T16:19:09;7.13;;;5.93;;
25846;SDS011;13676;50.168;8.568;2022-08-18T16:21:35;6.50;;;5.78;;
25846;SDS011;13676;50.168;8.568;2022-08-18T16:24:03;10.45;;;7.32;;
25846;SDS011;13676;50.168;8.568;2022-08-18T16:26:29;7.07;;;6.35;;
25846;SDS011;13676;50.168;8.568;2022-08-18T16:28:55;7.65;;;6.85;;
25846;SDS011;13676;50.168;8.568;2022-08-18T16:31:20;7.57;;;6.78;;
25846;SDS011;13676;50.168;8.568;2022-08-18T16:33:52;7.55;;;6.68;;
25846;SDS011;13676;50.168;8.568;2022-08-18T16:36:19;8.55;;;6.55;;
25846;SDS011;13676;50.168;8.568;2022-08-18T16:38:45;9.77;;;7.18;;
25846;SDS011;13676;50.168;8.568;2022-08-18T16:41:11;6.80;;;6.10;;
25846;SDS011;13676;50.168;8.568;2022-08-18T16:43:39;6.88;;;6.15;;
25846;SDS011;13676;50.168;8.568;2022-08-18T16:46:09;7.30;;;6.55;;
25846;SDS011;13676;50.168;8.568;2022-08-18T16:48:35;8.27;;;7.22;;
25846;SDS011;13676;50.168;8.568;2022-08-18T16:51:01;8.45;;;7.28;;
25846;SDS011;13676;50.168;8.568;2022-08-18T16:53:26;10.05;;;7.55;;
25846;SDS011;13676;50.168;8.568;2022-08-18T16:55:52;10.57;;;8.00;;
25846;SDS011;13676;50.168;8.568;2022-08-18T16:58:17;9.60;;;8.70;;
25846;SDS011;13676;50.168;8.568;2022-08-18T17:01:01;8.52;;;7.65;;
25846;SDS011;13676;50.168;8.568;2022-08-18T17:03:45;8.90;;;8.00;;
25846;SDS011;13676;50.168;8.568;2022-08-18T17:06:30;8.77;;;7.97;;
25846;SDS011;13676;50.168;8.568;2022-08-18T17:08:55;12.00;;;8.57;;
25846;SDS011;13676;50.168;8.568;2022-08-18T17:11:21;10.75;;;9.65;;
25846;SDS011;13676;50.168;8.568;2022-08-18T17:13:48;10.35;;;9.23;;
25846;SDS011;13676;50.168;8.568;2022-08-18T17:16:15;9.23;;;8.32;;
25846;SDS011;13676;50.168;8.568;2022-08-18T17:18:42;10.38;;;9.35;;
25846;SDS011;13676;50.168;8.568;2022-08-18T17:21:09;8.65;;;7.72;;
25846;SDS011;13676;50.168;8.568;2022-08-18T17:23:37;9.43;;;8.52;;
25846;SDS011;13676;50.168;8.568;2022-08-18T17:26:03;10.20;;;9.18;;
25846;SDS011;13676;50.168;8.568;2022-08-18T17:28:40;10.55;;;9.45;;
25846;SDS011;13676;50.168;8.568;2022-08-18T17:31:08;12.57;;;11.27;;
25846;SDS011;13676;50.168;8.568;2022-08-18T17:33:34;10.07;;;8.95;;
25846;SDS011;13676;50.168;8.568;2022-08-18T17:36:03;13.05;;;10.88;;
25846;SDS011;13676;50.168;8.568;2022-08-18T17:38:38;11.13;;;9.90;;
25846;SDS011;13676;50.168;8.568;2022-08-18T17:41:10;11.48;;;10.18;;
25846;SDS011;13676;50.168;8.568;2022-08-18T17:43:36;10.38;;;8.88;;
25846;SDS011;13676;50.168;8.568;2022-08-18T17:51:07;9.02;;;8.05;;